• Join FlightAware (Why Join?)
  • Login
  • US Flag 
03:13AM EST


 

Airport Tracker/Info


-or-


 

Live Flight TrackerFlight Track Log ✈ EGF3376 ✈ 20-Apr-2013 ✈ KDFW - KMSN

Flight Track Log - Related Links

Times and Time Zones

All times are in EDT time to prevent confusion due to time zone crossing. See the EGF3376 flight status page for this flight to view local times or setup timezone preferences in your user account.

Time Position Orientation Groundspeed Altitude Reporting Facility
EDT Latitude Longitude Course Direction KTS MPH feet Rate Location/Type
09:39PM 32.8500 -97.0500 357° North 168 193 2,500  Level Dallas / Fort Worth TRACON
09:40PM 32.8000 -97.0667 196° South 202 232 4,800 1,980 Climbing Dallas / Fort Worth TRACON
09:41PM 32.8380 -96.8024 10° North  Level FlightAware Approximate
09:41PM 32.7667 -97.1333 239° Southwest 280 322 6,700  Level Dallas / Fort Worth TRACON
09:42PM 32.9562 -96.8000 North  Level FlightAware Approximate
09:42PM 32.8122 -97.1564 337° Northwest 286 329 8,500  Level Fort Worth Center
09:43PM 33.0745 -96.8005 357° North  Level FlightAware Approximate
09:43PM 32.8872 -97.1239 20° North 278 320 10,600  Level Fort Worth Center
09:44PM 33.1926 -96.8079 357° North  Level FlightAware Approximate
09:44PM 32.9625 -97.0842 24° Northeast 317 365 11,700  Level Fort Worth Center
09:45PM 33.0478 -97.0392 24° Northeast 330 380 12,800 960 Climbing Fort Worth Center
09:46PM 33.1394 -96.9892 25° Northeast 345 397 13,700 960 Climbing Fort Worth Center
09:47PM 33.2375 -96.9392 23° Northeast 368 423 14,800 960 Climbing Fort Worth Center
09:48PM 33.3292 -96.8914 24° Northeast 389 448 15,700 960 Climbing Fort Worth Center
09:49PM 33.4417 -96.8308 24° Northeast 398 458 16,800 1,020 Climbing Fort Worth Center
09:50PM 33.5394 -96.7706 27° Northeast 398 458 17,800 900 Climbing Fort Worth Center
09:51PM 33.6392 -96.7025 30° Northeast 404 465 18,700 900 Climbing Fort Worth Center
09:52PM 33.7411 -96.6367 28° Northeast 410 472 19,700 900 Climbing Fort Worth Center
09:53PM 33.8367 -96.5783 27° Northeast 410 472 20,600 900 Climbing Fort Worth Center
09:54PM 33.9406 -96.5097 29° Northeast 420 483 21,600 960 Climbing Fort Worth Center
09:55PM 34.0444 -96.4408 29° Northeast 420 483 22,600 1,020 Climbing Fort Worth Center
09:56PM 34.1522 -96.3569 33° Northeast 420 483 23,700 1,020 Climbing Fort Worth Center
09:57PM 34.2517 -96.2753 34° Northeast 420 483 24,700 960 Climbing Fort Worth Center
09:58PM 34.3553 -96.1908 34° Northeast 431 496 25,700 960 Climbing Fort Worth Center
09:59PM 34.4567 -96.1064 34° Northeast 437 503 26,700 960 Climbing Fort Worth Center
10:00PM 34.5539 -96.0267 34° Northeast 437 503 27,700 960 Climbing Fort Worth Center
10:01PM 34.6550 -95.9419 35° Northeast 437 503 28,700 960 Climbing Fort Worth Center
10:02PM 34.7542 -95.8592 34° Northeast 437 503 29,700 960 Climbing Fort Worth Center
10:03PM 34.8533 -95.7764 34° Northeast 432 497 30,700 960 Climbing Fort Worth Center
10:04PM 34.9650 -95.7058 27° Northeast 432 497 31,700 900 Climbing Fort Worth Center
10:06PM 35.1797 -95.5636 28° Northeast 440 506 33,700 900 Climbing Kansas City Center
10:07PM 35.2886 -95.4906 29° Northeast 443 510 34,700 960 Climbing Kansas City Center
10:08PM 35.3958 -95.4189 29° Northeast 442 509 35,700 960 Climbing Kansas City Center
10:09PM 35.5028 -95.3475 29° Northeast 438 504 36,700 600 Climbing Kansas City Center
10:10PM 35.6086 -95.2781 28° Northeast 433 498 37,000 120 Climbing Kansas City Center
10:11PM 35.7419 -95.1883 29° Northeast 436 502 37,000  Level Memphis Center
10:12PM 35.8531 -95.1156 28° Northeast 442 509 37,000  Level Memphis Center
10:13PM 35.9644 -95.0397 29° Northeast 447 514 37,000  Level Memphis Center
10:15PM 36.1792 -94.8919 29° Northeast 450 518 37,000  Level Kansas City Center
10:16PM 36.2875 -94.8172 29° Northeast 449 517 37,000  Level Kansas City Center
10:17PM 36.3961 -94.7433 29° Northeast 448 516 37,000  Level Kansas City Center
10:18PM 36.5036 -94.6703 29° Northeast 444 511 37,000  Level Kansas City Center
10:19PM 36.6117 -94.5950 29° Northeast 445 512 37,000  Level Kansas City Center
10:20PM 36.7219 -94.5186 29° Northeast 451 519 37,000  Level Kansas City Center
10:21PM 36.8331 -94.4431 29° Northeast 453 521 37,000  Level Kansas City Center
10:22PM 36.9428 -94.3617 31° Northeast 457 526 37,000  Level Kansas City Center
10:23PM 37.0536 -94.2797 31° Northeast 461 531 37,000  Level Kansas City Center
10:24PM 37.1628 -94.1972 31° Northeast 460 529 37,000  Level Kansas City Center
10:25PM 37.2717 -94.1133 32° Northeast 459 528 37,000  Level Kansas City Center
10:26PM 37.3914 -94.0231 31° Northeast 458 527 37,000  Level Kansas City Center
10:27PM 37.4997 -93.9383 32° Northeast 457 526 37,000  Level Kansas City Center
10:28PM 37.6081 -93.8553 31° Northeast 454 522 37,000  Level Kansas City Center
10:29PM 37.7175 -93.7722 31° Northeast 455 524 37,000  Level Kansas City Center
10:30PM 37.8275 -93.6875 31° Northeast 459 528 37,000  Level Kansas City Center
10:31PM 37.9347 -93.6039 32° Northeast 454 522 37,000  Level Kansas City Center
10:32PM 38.0439 -93.5197 31° Northeast 455 524 37,000  Level Kansas City Center
10:33PM 38.1522 -93.4353 31° Northeast 454 522 37,000  Level Kansas City Center
10:34PM 38.2611 -93.3494 32° Northeast 455 524 37,000  Level Kansas City Center
10:35PM 38.3697 -93.2639 32° Northeast 455 524 37,000  Level Kansas City Center
10:36PM 38.4792 -93.1792 31° Northeast 456 525 37,000  Level Kansas City Center
10:37PM 38.5872 -93.0933 32° Northeast 455 524 37,000  Level Kansas City Center
10:38PM 38.6983 -93.0036 32° Northeast 462 532 37,000  Level Kansas City Center
10:39PM 38.8064 -92.9167 32° Northeast 459 528 37,000  Level Kansas City Center
10:40PM 38.9147 -92.8289 32° Northeast 457 526 37,000  Level Kansas City Center
10:41PM 39.0250 -92.7419 31° Northeast 455 524 37,000  Level Kansas City Center
10:42PM 39.1306 -92.6572 32° Northeast 453 521 37,000  Level Kansas City Center
10:43PM 39.2392 -92.5700 32° Northeast 454 522 37,000  Level Kansas City Center
10:44PM 39.3456 -92.4817 33° Northeast 460 529 37,000  Level Kansas City Center
10:45PM 39.4511 -92.3967 32° Northeast 456 525 37,000  Level Kansas City Center
10:46PM 39.5569 -92.3119 32° Northeast 454 522 37,000  Level Kansas City Center
10:47PM 39.6622 -92.2261 32° Northeast 452 520 37,000  Level Kansas City Center
10:49PM 39.7669 -92.1400 32° Northeast 452 520 37,000  Level Kansas City Center
10:49PM 39.8733 -92.0531 32° Northeast 456 525 37,000  Level Kansas City Center
10:51PM 39.9792 -91.9644 33° Northeast 457 526 37,000  Level Kansas City Center
10:52PM 40.1044 -91.8594 33° Northeast 455 524 37,000  Level Kansas City Center
10:53PM 40.2078 -91.7731 33° Northeast 450 518 37,000  Level Kansas City Center
10:54PM 40.3128 -91.6844 33° Northeast 452 520 37,000 -420 Level Kansas City Center
10:55PM 40.4194 -91.5969 32° Northeast 454 522 36,200 -480 Descending Kansas City Center
10:56PM 40.5369 -91.4969 33° Northeast 426 490 36,000 -120 Descending Chicago Center
10:57PM 40.6375 -91.4125 32° Northeast 429 494 36,000  Level Chicago Center
10:58PM 40.7400 -91.3253 33° Northeast 441 507 36,000  Level Chicago Center
10:59PM 40.8317 -91.2456 33° Northeast 442 509 36,000  Level Chicago Center
11:00PM 40.9367 -91.1572 32° Northeast 444 511 36,000  Level Chicago Center
11:01PM 41.0400 -91.0658 34° Northeast 444 511 36,000  Level Chicago Center
11:02PM 41.1456 -90.9764 33° Northeast 447 514 36,000  Level Chicago Center
11:03PM 41.2500 -90.8858 33° Northeast 448 516 36,000  Level Chicago Center
11:04PM 41.3536 -90.7964 33° Northeast 444 511 36,000  Level Chicago Center
11:05PM 41.4572 -90.7033 34° Northeast 445 512 36,000  Level Chicago Center
11:06PM 41.5617 -90.6136 33° Northeast 445 512 36,000  Level Chicago Center
11:07PM 41.6658 -90.5219 33° Northeast 446 513 36,000  Level Chicago Center
11:08PM 41.7714 -90.4331 32° Northeast 447 514 36,000  Level Chicago Center
11:09PM 41.8881 -90.3442 30° Northeast 443 510 36,000 -360 Level Chicago Center
11:10PM 41.9928 -90.2608 31° Northeast 442 509 35,300 -840 Descending Chicago Center
11:11PM 42.0950 -90.1806 30° Northeast 431 496 34,400 -1,080 Descending Chicago Center
11:12PM 42.1964 -90.1014 30° Northeast 426 490 33,200 -2,040 Descending Chicago Center
11:13PM 42.3000 -90.0194 30° Northeast 433 498 30,400 -2,880 Descending Chicago Center
11:14PM 42.4008 -89.9358 31° Northeast 431 496 27,400 -3,240 Descending Chicago Center
11:15PM 42.5114 -89.8469 31° Northeast 431 496 24,000 -3,300 Descending Chicago Center
11:16PM 42.6117 -89.7681 30° Northeast 419 482 20,800 -3,120 Descending Chicago Center
11:17PM 42.7067 -89.6914 31° Northeast 401 461 17,800 -3,240 Descending Chicago Center
11:18PM 42.7969 -89.6172 31° Northeast 384 442 14,300 -2,940 Descending Chicago Center
11:19PM 42.8889 -89.5636 23° Northeast 362 417 11,900 -2,280 Descending Chicago Center
11:20PM 42.9694 -89.5183 22° Northeast 322 371 9,800 -2,220 Descending Chicago Center
11:21PM 43.0375 -89.4856 19° North 265 305 7,500 -2,280 Descending Chicago Center
11:22PM 43.1025 -89.4592 17° North 251 289 5,300 -1,800 Descending Chicago Center
11:23PM 43.1622 -89.4525 North 223 257 3,900 -1,140 Descending Chicago Center
11:24PM 43.2078 -89.4244 24° Northeast 205 236 3,100 -840 Descending Chicago Center